sensor_id;sensor_type;location;lat;lon;timestamp;temperature;humidity
27619;DHT22;15039;50.830;4.730;2022-12-17T00:02:24;-2.80;99.90
27619;DHT22;15039;50.830;4.730;2022-12-17T00:05:08;-2.80;99.90
27619;DHT22;15039;50.830;4.730;2022-12-17T00:07:57;-2.90;99.90
27619;DHT22;15039;50.830;4.730;2022-12-17T00:10:41;-2.90;99.90
27619;DHT22;15039;50.830;4.730;2022-12-17T00:13:25;-3.00;99.90
27619;DHT22;15039;50.830;4.730;2022-12-17T00:16:09;-3.20;99.90
27619;DHT22;15039;50.830;4.730;2022-12-17T00:18:53;-3.30;99.90
27619;DHT22;15039;50.830;4.730;2022-12-17T00:21:37;-3.30;99.90
27619;DHT22;15039;50.830;4.730;2022-12-17T00:24:22;-3.20;99.90
27619;DHT22;15039;50.830;4.730;2022-12-17T00:27:06;-3.20;99.90
27619;DHT22;15039;50.830;4.730;2022-12-17T00:29:50;-3.10;99.90
27619;DHT22;15039;50.830;4.730;2022-12-17T00:32:34;-3.00;99.90
27619;DHT22;15039;50.830;4.730;2022-12-17T00:35:18;-2.80;99.90
27619;DHT22;15039;50.830;4.730;2022-12-17T00:38:02;-3.00;99.90
27619;DHT22;15039;50.830;4.730;2022-12-17T00:40:51;-3.30;99.90
27619;DHT22;15039;50.830;4.730;2022-12-17T00:43:36;-3.40;99.90
27619;DHT22;15039;50.830;4.730;2022-12-17T00:46:20;-3.40;99.90
27619;DHT22;15039;50.830;4.730;2022-12-17T00:49:04;-3.30;99.90
27619;DHT22;15039;50.830;4.730;2022-12-17T00:51:48;-3.50;99.90
27619;DHT22;15039;50.830;4.730;2022-12-17T00:54:32;-3.40;99.90
27619;DHT22;15039;50.830;4.730;2022-12-17T00:57:16;-3.50;99.90
27619;DHT22;15039;50.830;4.730;2022-12-17T01:00:00;-3.60;99.90
27619;DHT22;15039;50.830;4.730;2022-12-17T01:02:44;-3.70;99.90
27619;DHT22;15039;50.830;4.730;2022-12-17T01:05:28;-3.90;99.90
27619;DHT22;15039;50.830;4.730;2022-12-17T01:08:13;-4.00;99.90
27619;DHT22;15039;50.830;4.730;2022-12-17T01:10:59;-4.10;99.90
27619;DHT22;15039;50.830;4.730;2022-12-17T01:13:44;-4.00;99.90
27619;DHT22;15039;50.830;4.730;2022-12-17T01:16:29;-4.00;99.90
27619;DHT22;15039;50.830;4.730;2022-12-17T01:19:13;-3.90;99.90
27619;DHT22;15039;50.830;4.730;2022-12-17T01:21:57;-4.00;99.90
27619;DHT22;15039;50.830;4.730;2022-12-17T01:24:41;-3.90;99.90
27619;DHT22;15039;50.830;4.730;2022-12-17T01:27:25;-4.00;99.90
27619;DHT22;15039;50.830;4.730;2022-12-17T01:30:09;-3.90;99.90
27619;DHT22;15039;50.830;4.730;2022-12-17T01:33:03;-3.80;99.90
27619;DHT22;15039;50.830;4.730;2022-12-17T01:35:47;-3.70;99.90
27619;DHT22;15039;50.830;4.730;2022-12-17T01:38:31;-3.70;99.90
27619;DHT22;15039;50.830;4.730;2022-12-17T01:41:15;-3.60;99.90
27619;DHT22;15039;50.830;4.730;2022-12-17T01:47:43;-3.40;99.90
27619;DHT22;15039;50.830;4.730;2022-12-17T01:50:32;-3.60;99.90
27619;DHT22;15039;50.830;4.730;2022-12-17T01:53:21;-3.60;99.90
27619;DHT22;15039;50.830;4.730;2022-12-17T01:56:05;-3.40;99.90
27619;DHT22;15039;50.830;4.730;2022-12-17T01:58:51;-3.30;99.90
27619;DHT22;15039;50.830;4.730;2022-12-17T02:01:35;-3.20;99.90
27619;DHT22;15039;50.830;4.730;2022-12-17T02:04:20;-3.20;99.90
27619;DHT22;15039;50.830;4.730;2022-12-17T02:12:51;-3.30;99.90
27619;DHT22;15039;50.830;4.730;2022-12-17T02:15:54;-3.30;99.90
27619;DHT22;15039;50.830;4.730;2022-12-17T02:18:51;-3.50;99.90
27619;DHT22;15039;50.830;4.730;2022-12-17T02:21:38;-3.70;99.90
27619;DHT22;15039;50.830;4.730;2022-12-17T02:27:25;-3.80;99.90
27619;DHT22;15039;50.830;4.730;2022-12-17T02:30:10;-3.90;99.90
27619;DHT22;15039;50.830;4.730;2022-12-17T02:32:55;-4.00;99.90
27619;DHT22;15039;50.830;4.730;2022-12-17T02:35:46;-3.90;99.90
27619;DHT22;15039;50.830;4.730;2022-12-17T02:38:32;-3.90;99.90
27619;DHT22;15039;50.830;4.730;2022-12-17T02:41:27;-4.00;99.90
27619;DHT22;15039;50.830;4.730;2022-12-17T02:44:14;-4.00;99.90
27619;DHT22;15039;50.830;4.730;2022-12-17T02:47:00;-4.10;99.90
27619;DHT22;15039;50.830;4.730;2022-12-17T02:49:45;-4.00;99.90
27619;DHT22;15039;50.830;4.730;2022-12-17T02:52:30;-3.90;99.90
27619;DHT22;15039;50.830;4.730;2022-12-17T02:55:16;-3.80;99.90
27619;DHT22;15039;50.830;4.730;2022-12-17T02:58:00;-3.70;99.90
27619;DHT22;15039;50.830;4.730;2022-12-17T03:00:44;-3.80;99.90
27619;DHT22;15039;50.830;4.730;2022-12-17T03:03:28;-3.70;99.90
27619;DHT22;15039;50.830;4.730;2022-12-17T03:06:12;-3.60;99.90
27619;DHT22;15039;50.830;4.730;2022-12-17T03:08:56;-3.70;99.90
27619;DHT22;15039;50.830;4.730;2022-12-17T03:11:40;-4.00;99.90
27619;DHT22;15039;50.830;4.730;2022-12-17T03:14:24;-4.10;99.90
27619;DHT22;15039;50.830;4.730;2022-12-17T03:17:08;-4.20;99.90
27619;DHT22;15039;50.830;4.730;2022-12-17T03:19:52;-4.20;99.90
27619;DHT22;15039;50.830;4.730;2022-12-17T03:22:36;-4.40;99.90
27619;DHT22;15039;50.830;4.730;2022-12-17T03:25:20;-4.50;99.90
27619;DHT22;15039;50.830;4.730;2022-12-17T03:28:06;-4.70;99.90
27619;DHT22;15039;50.830;4.730;2022-12-17T03:30:50;-4.80;99.90
27619;DHT22;15039;50.830;4.730;2022-12-17T03:33:34;-4.90;99.90
27619;DHT22;15039;50.830;4.730;2022-12-17T03:36:19;-4.80;99.90
27619;DHT22;15039;50.830;4.730;2022-12-17T03:39:03;-4.80;99.90
27619;DHT22;15039;50.830;4.730;2022-12-17T03:41:47;-4.70;99.90
27619;DHT22;15039;50.830;4.730;2022-12-17T03:44:31;-4.70;99.90
27619;DHT22;15039;50.830;4.730;2022-12-17T03:47:15;-4.60;99.90
27619;DHT22;15039;50.830;4.730;2022-12-17T03:49:59;-4.60;99.90
27619;DHT22;15039;50.830;4.730;2022-12-17T03:52:44;-4.50;99.90
27619;DHT22;15039;50.830;4.730;2022-12-17T03:55:28;-4.40;99.90
27619;DHT22;15039;50.830;4.730;2022-12-17T03:58:12;-4.40;99.90
27619;DHT22;15039;50.830;4.730;2022-12-17T04:00:56;-4.50;99.90
27619;DHT22;15039;50.830;4.730;2022-12-17T04:03:40;-4.50;99.90
27619;DHT22;15039;50.830;4.730;2022-12-17T04:06:24;-4.50;99.90
27619;DHT22;15039;50.830;4.730;2022-12-17T04:09:08;-4.50;99.90
27619;DHT22;15039;50.830;4.730;2022-12-17T04:11:52;-4.50;99.90
27619;DHT22;15039;50.830;4.730;2022-12-17T04:14:36;-4.40;99.90
27619;DHT22;15039;50.830;4.730;2022-12-17T04:17:20;-4.40;99.90
27619;DHT22;15039;50.830;4.730;2022-12-17T04:20:05;-4.40;99.90
27619;DHT22;15039;50.830;4.730;2022-12-17T04:22:49;-4.10;99.90
27619;DHT22;15039;50.830;4.730;2022-12-17T04:25:33;-4.30;99.90
27619;DHT22;15039;50.830;4.730;2022-12-17T04:28:17;-4.40;99.90
27619;DHT22;15039;50.830;4.730;2022-12-17T04:31:01;-4.50;99.90
27619;DHT22;15039;50.830;4.730;2022-12-17T04:33:45;-4.60;99.90
27619;DHT22;15039;50.830;4.730;2022-12-17T04:36:29;-4.70;99.90
27619;DHT22;15039;50.830;4.730;2022-12-17T04:39:13;-4.70;99.90
27619;DHT22;15039;50.830;4.730;2022-12-17T04:41:57;-4.60;99.90
27619;DHT22;15039;50.830;4.730;2022-12-17T04:44:41;-4.20;99.90
27619;DHT22;15039;50.830;4.730;2022-12-17T04:47:25;-4.10;99.90
27619;DHT22;15039;50.830;4.730;2022-12-17T04:50:09;-4.20;99.90
27619;DHT22;15039;50.830;4.730;2022-12-17T04:53:01;-4.00;99.90
27619;DHT22;15039;50.830;4.730;2022-12-17T04:55:45;-3.70;99.90
27619;DHT22;15039;50.830;4.730;2022-12-17T04:58:29;-3.50;99.90
27619;DHT22;15039;50.830;4.730;2022-12-17T05:01:13;-3.50;99.90
27619;DHT22;15039;50.830;4.730;2022-12-17T05:03:57;-3.50;99.90
27619;DHT22;15039;50.830;4.730;2022-12-17T05:06:41;-3.60;99.90
27619;DHT22;15039;50.830;4.730;2022-12-17T05:09:25;-3.70;99.90
27619;DHT22;15039;50.830;4.730;2022-12-17T05:12:09;-3.70;99.90
27619;DHT22;15039;50.830;4.730;2022-12-17T05:14:53;-3.80;99.90
27619;DHT22;15039;50.830;4.730;2022-12-17T05:17:37;-3.80;99.90
27619;DHT22;15039;50.830;4.730;2022-12-17T05:20:21;-3.90;99.90
27619;DHT22;15039;50.830;4.730;2022-12-17T05:23:06;-4.00;99.90
27619;DHT22;15039;50.830;4.730;2022-12-17T05:28:47;-4.30;99.90
27619;DHT22;15039;50.830;4.730;2022-12-17T05:31:31;-4.50;99.90
27619;DHT22;15039;50.830;4.730;2022-12-17T05:34:15;-4.60;99.90
27619;DHT22;15039;50.830;4.730;2022-12-17T05:36:59;-4.80;99.90
27619;DHT22;15039;50.830;4.730;2022-12-17T05:39:43;-4.80;99.90
27619;DHT22;15039;50.830;4.730;2022-12-17T05:42:27;-4.80;99.90
27619;DHT22;15039;50.830;4.730;2022-12-17T05:45:11;-4.80;99.90
27619;DHT22;15039;50.830;4.730;2022-12-17T05:47:56;-4.70;99.90
27619;DHT22;15039;50.830;4.730;2022-12-17T05:50:50;-4.60;99.90
27619;DHT22;15039;50.830;4.730;2022-12-17T05:53:35;-4.20;99.90
27619;DHT22;15039;50.830;4.730;2022-12-17T05:56:19;-4.20;99.90
27619;DHT22;15039;50.830;4.730;2022-12-17T05:59:03;-4.30;99.90
27619;DHT22;15039;50.830;4.730;2022-12-17T06:01:55;-4.40;99.90
27619;DHT22;15039;50.830;4.730;2022-12-17T06:04:39;-4.60;99.90
27619;DHT22;15039;50.830;4.730;2022-12-17T06:07:23;-4.60;99.90
27619;DHT22;15039;50.830;4.730;2022-12-17T06:10:07;-4.60;99.90
27619;DHT22;15039;50.830;4.730;2022-12-17T06:12:55;-4.50;99.90
27619;DHT22;15039;50.830;4.730;2022-12-17T06:15:39;-4.60;99.90
27619;DHT22;15039;50.830;4.730;2022-12-17T06:18:24;-4.70;99.90
27619;DHT22;15039;50.830;4.730;2022-12-17T06:21:08;-4.90;99.90
27619;DHT22;15039;50.830;4.730;2022-12-17T06:23:52;-4.90;99.90
27619;DHT22;15039;50.830;4.730;2022-12-17T06:26:36;-4.80;99.90
27619;DHT22;15039;50.830;4.730;2022-12-17T06:29:20;-4.80;99.90
27619;DHT22;15039;50.830;4.730;2022-12-17T06:32:04;-5.00;99.90
27619;DHT22;15039;50.830;4.730;2022-12-17T06:34:48;-4.90;99.90
27619;DHT22;15039;50.830;4.730;2022-12-17T06:37:32;-5.00;99.90
27619;DHT22;15039;50.830;4.730;2022-12-17T06:40:16;-5.10;99.90
27619;DHT22;15039;50.830;4.730;2022-12-17T06:43:08;-5.00;99.90
27619;DHT22;15039;50.830;4.730;2022-12-17T06:45:52;-4.80;99.90
27619;DHT22;15039;50.830;4.730;2022-12-17T06:48:36;-5.00;99.90
27619;DHT22;15039;50.830;4.730;2022-12-17T06:51:20;-5.00;99.90
27619;DHT22;15039;50.830;4.730;2022-12-17T06:54:04;-5.20;99.90
27619;DHT22;15039;50.830;4.730;2022-12-17T06:56:48;-5.30;99.90
27619;DHT22;15039;50.830;4.730;2022-12-17T06:59:32;-5.40;99.90
27619;DHT22;15039;50.830;4.730;2022-12-17T07:02:16;-5.30;99.90
27619;DHT22;15039;50.830;4.730;2022-12-17T07:05:00;-5.20;99.90
27619;DHT22;15039;50.830;4.730;2022-12-17T07:07:44;-5.10;99.90
27619;DHT22;15039;50.830;4.730;2022-12-17T07:10:29;-5.00;99.90
27619;DHT22;15039;50.830;4.730;2022-12-17T07:13:13;-5.00;99.90
27619;DHT22;15039;50.830;4.730;2022-12-17T07:15:57;-5.00;99.90
27619;DHT22;15039;50.830;4.730;2022-12-17T07:18:41;-5.00;99.90
27619;DHT22;15039;50.830;4.730;2022-12-17T07:21:25;-5.00;99.90
27619;DHT22;15039;50.830;4.730;2022-12-17T07:24:09;-4.70;99.90
27619;DHT22;15039;50.830;4.730;2022-12-17T07:26:53;-4.70;99.90
27619;DHT22;15039;50.830;4.730;2022-12-17T07:29:37;-4.70;99.90
27619;DHT22;15039;50.830;4.730;2022-12-17T07:32:21;-4.80;99.90
27619;DHT22;15039;50.830;4.730;2022-12-17T07:35:06;-4.80;99.90
27619;DHT22;15039;50.830;4.730;2022-12-17T07:38:00;-4.80;99.90
27619;DHT22;15039;50.830;4.730;2022-12-17T07:40:44;-4.70;99.90
27619;DHT22;15039;50.830;4.730;2022-12-17T07:43:28;-4.70;99.90
27619;DHT22;15039;50.830;4.730;2022-12-17T07:46:12;-4.70;99.90
27619;DHT22;15039;50.830;4.730;2022-12-17T07:48:56;-4.80;99.90
27619;DHT22;15039;50.830;4.730;2022-12-17T07:51:41;-4.80;99.90
27619;DHT22;15039;50.830;4.730;2022-12-17T07:54:25;-5.00;99.90
27619;DHT22;15039;50.830;4.730;2022-12-17T07:57:09;-4.90;99.90
27619;DHT22;15039;50.830;4.730;2022-12-17T07:59:53;-4.70;99.90
27619;DHT22;15039;50.830;4.730;2022-12-17T08:02:37;-4.60;99.90
27619;DHT22;15039;50.830;4.730;2022-12-17T08:05:21;-4.60;99.90
27619;DHT22;15039;50.830;4.730;2022-12-17T08:08:12;-4.50;99.90
27619;DHT22;15039;50.830;4.730;2022-12-17T08:10:57;-4.40;99.90
27619;DHT22;15039;50.830;4.730;2022-12-17T08:13:42;-4.30;99.90
27619;DHT22;15039;50.830;4.730;2022-12-17T08:16:26;-4.20;99.90
27619;DHT22;15039;50.830;4.730;2022-12-17T08:19:10;-4.30;99.90
27619;DHT22;15039;50.830;4.730;2022-12-17T08:21:54;-4.30;99.90
27619;DHT22;15039;50.830;4.730;2022-12-17T08:24:38;-4.40;99.90
27619;DHT22;15039;50.830;4.730;2022-12-17T08:27:22;-4.30;99.90
27619;DHT22;15039;50.830;4.730;2022-12-17T08:30:06;-4.40;99.90
27619;DHT22;15039;50.830;4.730;2022-12-17T08:32:51;-4.40;99.90
27619;DHT22;15039;50.830;4.730;2022-12-17T08:35:35;-4.30;99.90
27619;DHT22;15039;50.830;4.730;2022-12-17T08:38:19;-4.10;99.90
27619;DHT22;15039;50.830;4.730;2022-12-17T08:41:03;-3.90;99.90
27619;DHT22;15039;50.830;4.730;2022-12-17T08:43:47;-3.90;99.90
27619;DHT22;15039;50.830;4.730;2022-12-17T08:46:31;-3.90;99.90
27619;DHT22;15039;50.830;4.730;2022-12-17T08:49:15;-3.80;99.90
27619;DHT22;15039;50.830;4.730;2022-12-17T08:51:59;-3.80;99.90
27619;DHT22;15039;50.830;4.730;2022-12-17T08:54:44;-3.60;99.90
27619;DHT22;15039;50.830;4.730;2022-12-17T08:57:28;-3.50;99.90
27619;DHT22;15039;50.830;4.730;2022-12-17T09:00:12;-3.60;99.90
27619;DHT22;15039;50.830;4.730;2022-12-17T09:02:58;-3.50;99.90
27619;DHT22;15039;50.830;4.730;2022-12-17T09:05:42;-3.50;99.90
27619;DHT22;15039;50.830;4.730;2022-12-17T09:08:26;-3.50;99.90
27619;DHT22;15039;50.830;4.730;2022-12-17T09:11:10;-3.40;99.90
27619;DHT22;15039;50.830;4.730;2022-12-17T09:13:54;-3.30;99.90
27619;DHT22;15039;50.830;4.730;2022-12-17T09:16:38;-3.30;99.90
27619;DHT22;15039;50.830;4.730;2022-12-17T09:19:22;-3.10;99.90
27619;DHT22;15039;50.830;4.730;2022-12-17T09:22:06;-2.80;99.90
27619;DHT22;15039;50.830;4.730;2022-12-17T09:24:50;-2.60;99.90
27619;DHT22;15039;50.830;4.730;2022-12-17T09:27:34;-2.50;99.90
27619;DHT22;15039;50.830;4.730;2022-12-17T09:30:19;-2.40;99.90
27619;DHT22;15039;50.830;4.730;2022-12-17T09:33:03;-2.40;99.90
27619;DHT22;15039;50.830;4.730;2022-12-17T09:35:47;-2.40;99.90
27619;DHT22;15039;50.830;4.730;2022-12-17T09:38:31;-2.30;99.90
27619;DHT22;15039;50.830;4.730;2022-12-17T09:41:26;-2.30;99.90
27619;DHT22;15039;50.830;4.730;2022-12-17T09:47:01;-2.10;99.90
27619;DHT22;15039;50.830;4.730;2022-12-17T09:49:45;-2.00;99.90
27619;DHT22;15039;50.830;4.730;2022-12-17T09:52:38;-1.80;99.90
27619;DHT22;15039;50.830;4.730;2022-12-17T09:55:40;-1.80;99.90
27619;DHT22;15039;50.830;4.730;2022-12-17T09:58:34;-1.60;99.90
27619;DHT22;15039;50.830;4.730;2022-12-17T10:01:22;-1.60;99.90
27619;DHT22;15039;50.830;4.730;2022-12-17T10:04:15;-1.70;99.90
27619;DHT22;15039;50.830;4.730;2022-12-17T10:07:00;-1.70;99.90
27619;DHT22;15039;50.830;4.730;2022-12-17T10:09:49;-1.60;99.90
27619;DHT22;15039;50.830;4.730;2022-12-17T10:12:34;-1.50;99.90
27619;DHT22;15039;50.830;4.730;2022-12-17T10:15:18;-1.40;99.90
27619;DHT22;15039;50.830;4.730;2022-12-17T10:18:06;-1.40;99.90
27619;DHT22;15039;50.830;4.730;2022-12-17T10:21:01;-1.30;99.90
27619;DHT22;15039;50.830;4.730;2022-12-17T10:23:45;-1.20;99.90
27619;DHT22;15039;50.830;4.730;2022-12-17T10:26:32;-1.10;99.90
27619;DHT22;15039;50.830;4.730;2022-12-17T10:29:23;-1.00;99.90
27619;DHT22;15039;50.830;4.730;2022-12-17T10:34:59;-1.00;99.90
27619;DHT22;15039;50.830;4.730;2022-12-17T10:37:45;-0.70;99.90
27619;DHT22;15039;50.830;4.730;2022-12-17T10:40:33;-0.80;99.90
27619;DHT22;15039;50.830;4.730;2022-12-17T10:43:26;-0.90;99.90
27619;DHT22;15039;50.830;4.730;2022-12-17T10:46:30;-0.90;99.90
27619;DHT22;15039;50.830;4.730;2022-12-17T10:49:17;-0.80;99.90
27619;DHT22;15039;50.830;4.730;2022-12-17T10:52:22;-0.60;99.90
27619;DHT22;15039;50.830;4.730;2022-12-17T10:55:25;-0.50;99.90
27619;DHT22;15039;50.830;4.730;2022-12-17T10:58:21;-0.60;99.90
27619;DHT22;15039;50.830;4.730;2022-12-17T11:01:09;-0.50;99.90
27619;DHT22;15039;50.830;4.730;2022-12-17T11:03:55;-0.50;99.90
27619;DHT22;15039;50.830;4.730;2022-12-17T11:06:49;-0.60;99.90
27619;DHT22;15039;50.830;4.730;2022-12-17T11:09:45;-0.60;99.90
27619;DHT22;15039;50.830;4.730;2022-12-17T11:12:45;-0.50;99.90
27619;DHT22;15039;50.830;4.730;2022-12-17T11:15:57;-0.50;99.90
27619;DHT22;15039;50.830;4.730;2022-12-17T11:25:29;-0.20;99.90
27619;DHT22;15039;50.830;4.730;2022-12-17T11:28:26;-0.30;99.90
27619;DHT22;15039;50.830;4.730;2022-12-17T11:58:51;-0.20;99.90
27619;DHT22;15039;50.830;4.730;2022-12-17T12:11:01;-0.20;99.90
27619;DHT22;15039;50.830;4.730;2022-12-17T12:17:15;-0.10;99.90
27619;DHT22;15039;50.830;4.730;2022-12-17T12:20:25;0.10;99.90
27619;DHT22;15039;50.830;4.730;2022-12-17T12:26:18;0.00;99.90
27619;DHT22;15039;50.830;4.730;2022-12-17T12:29:13;0.10;99.90
27619;DHT22;15039;50.830;4.730;2022-12-17T12:32:05;0.00;99.90
27619;DHT22;15039;50.830;4.730;2022-12-17T12:34:53;0.00;99.90
27619;DHT22;15039;50.830;4.730;2022-12-17T12:37:39;-0.10;99.90
27619;DHT22;15039;50.830;4.730;2022-12-17T12:43:42;-0.20;99.90
27619;DHT22;15039;50.830;4.730;2022-12-17T12:46:37;-0.10;99.90
27619;DHT22;15039;50.830;4.730;2022-12-17T12:52:33;0.10;99.90
27619;DHT22;15039;50.830;4.730;2022-12-17T12:55:17;0.00;99.90
27619;DHT22;15039;50.830;4.730;2022-12-17T12:58:03;0.00;99.90
27619;DHT22;15039;50.830;4.730;2022-12-17T13:11:43;0.30;99.90
27619;DHT22;15039;50.830;4.730;2022-12-17T13:14:14;0.40;99.90
27619;DHT22;15039;50.830;4.730;2022-12-17T13:16:53;0.40;99.90
27619;DHT22;15039;50.830;4.730;2022-12-17T13:19:36;0.30;99.90
27619;DHT22;15039;50.830;4.730;2022-12-17T13:24:44;0.10;99.90
27619;DHT22;15039;50.830;4.730;2022-12-17T13:27:38;0.20;99.90
27619;DHT22;15039;50.830;4.730;2022-12-17T13:33:11;0.30;99.90
27619;DHT22;15039;50.830;4.730;2022-12-17T13:35:51;0.10;99.90
27619;DHT22;15039;50.830;4.730;2022-12-17T13:38:44;0.10;99.90
27619;DHT22;15039;50.830;4.730;2022-12-17T13:41:19;0.10;99.90
27619;DHT22;15039;50.830;4.730;2022-12-17T13:43:48;0.10;99.90
27619;DHT22;15039;50.830;4.730;2022-12-17T13:48:59;0.30;99.90
27619;DHT22;15039;50.830;4.730;2022-12-17T13:51:27;0.20;99.90
27619;DHT22;15039;50.830;4.730;2022-12-17T13:54:02;0.10;99.90
27619;DHT22;15039;50.830;4.730;2022-12-17T13:58:56;0.20;99.90
27619;DHT22;15039;50.830;4.730;2022-12-17T14:01:22;0.10;99.90
27619;DHT22;15039;50.830;4.730;2022-12-17T14:03:58;0.10;99.90
27619;DHT22;15039;50.830;4.730;2022-12-17T14:06:36;-0.10;99.90
27619;DHT22;15039;50.830;4.730;2022-12-17T14:09:03;-0.10;99.90
27619;DHT22;15039;50.830;4.730;2022-12-17T14:11:29;-0.20;99.90
27619;DHT22;15039;50.830;4.730;2022-12-17T14:14:37;-0.10;99.90
27619;DHT22;15039;50.830;4.730;2022-12-17T14:17:04;-0.10;99.90
27619;DHT22;15039;50.830;4.730;2022-12-17T14:19:31;0.00;99.90
27619;DHT22;15039;50.830;4.730;2022-12-17T14:21:57;0.00;99.90
27619;DHT22;15039;50.830;4.730;2022-12-17T14:24:24;0.00;99.90
27619;DHT22;15039;50.830;4.730;2022-12-17T14:26:56;0.00;99.90
27619;DHT22;15039;50.830;4.730;2022-12-17T14:29:30;0.00;99.90
27619;DHT22;15039;50.830;4.730;2022-12-17T14:32:02;0.00;99.90
27619;DHT22;15039;50.830;4.730;2022-12-17T14:34:45;0.20;99.90
27619;DHT22;15039;50.830;4.730;2022-12-17T14:37:16;0.20;99.90
27619;DHT22;15039;50.830;4.730;2022-12-17T14:39:43;0.30;99.90
27619;DHT22;15039;50.830;4.730;2022-12-17T14:42:20;0.20;99.90
27619;DHT22;15039;50.830;4.730;2022-12-17T14:44:55;0.00;99.90
27619;DHT22;15039;50.830;4.730;2022-12-17T14:47:31;-0.10;99.90
27619;DHT22;15039;50.830;4.730;2022-12-17T14:52:36;-0.10;99.90
27619;DHT22;15039;50.830;4.730;2022-12-17T14:57:50;-0.10;99.90
27619;DHT22;15039;50.830;4.730;2022-12-17T15:00:17;-0.10;99.90
27619;DHT22;15039;50.830;4.730;2022-12-17T15:02:44;-0.20;99.90
27619;DHT22;15039;50.830;4.730;2022-12-17T15:05:14;-0.20;99.90
27619;DHT22;15039;50.830;4.730;2022-12-17T15:07:40;-0.30;99.90
27619;DHT22;15039;50.830;4.730;2022-12-17T15:10:15;-0.40;99.90
27619;DHT22;15039;50.830;4.730;2022-12-17T15:12:42;-0.40;99.90
27619;DHT22;15039;50.830;4.730;2022-12-17T15:15:15;-0.50;99.90
27619;DHT22;15039;50.830;4.730;2022-12-17T15:17:42;-0.60;99.90
27619;DHT22;15039;50.830;4.730;2022-12-17T15:20:19;-0.60;99.90
27619;DHT22;15039;50.830;4.730;2022-12-17T15:22:45;-0.60;99.90
27619;DHT22;15039;50.830;4.730;2022-12-17T15:25:14;-0.60;99.90
27619;DHT22;15039;50.830;4.730;2022-12-17T15:27:40;-0.60;99.90
27619;DHT22;15039;50.830;4.730;2022-12-17T15:30:08;-0.40;99.90
27619;DHT22;15039;50.830;4.730;2022-12-17T15:32:34;-0.50;99.90
27619;DHT22;15039;50.830;4.730;2022-12-17T15:34:59;-0.60;99.90
27619;DHT22;15039;50.830;4.730;2022-12-17T15:37:25;-0.50;99.90
27619;DHT22;15039;50.830;4.730;2022-12-17T15:39:51;-0.50;99.90
27619;DHT22;15039;50.830;4.730;2022-12-17T15:42:16;-0.60;99.90
27619;DHT22;15039;50.830;4.730;2022-12-17T15:45:00;-0.60;99.90
27619;DHT22;15039;50.830;4.730;2022-12-17T15:47:26;-0.40;99.90
27619;DHT22;15039;50.830;4.730;2022-12-17T15:49:52;-0.60;99.90
27619;DHT22;15039;50.830;4.730;2022-12-17T15:52:17;-0.70;99.90
27619;DHT22;15039;50.830;4.730;2022-12-17T15:54:43;-0.80;99.90
27619;DHT22;15039;50.830;4.730;2022-12-17T15:57:09;-0.80;99.90
27619;DHT22;15039;50.830;4.730;2022-12-17T15:59:35;-0.90;99.90
27619;DHT22;15039;50.830;4.730;2022-12-17T16:02:00;-0.90;99.90
27619;DHT22;15039;50.830;4.730;2022-12-17T16:04:26;-0.90;99.90
27619;DHT22;15039;50.830;4.730;2022-12-17T16:06:52;-0.90;99.90
27619;DHT22;15039;50.830;4.730;2022-12-17T16:09:18;-1.00;99.90
27619;DHT22;15039;50.830;4.730;2022-12-17T16:11:44;-1.00;99.90
27619;DHT22;15039;50.830;4.730;2022-12-17T16:14:10;-0.90;99.90
27619;DHT22;15039;50.830;4.730;2022-12-17T16:16:35;-1.00;99.90
27619;DHT22;15039;50.830;4.730;2022-12-17T16:19:01;-0.90;99.90
27619;DHT22;15039;50.830;4.730;2022-12-17T16:21:27;-1.00;99.90
27619;DHT22;15039;50.830;4.730;2022-12-17T16:23:53;-1.10;99.90
27619;DHT22;15039;50.830;4.730;2022-12-17T16:26:19;-1.20;99.90
27619;DHT22;15039;50.830;4.730;2022-12-17T16:28:44;-1.50;99.90
27619;DHT22;15039;50.830;4.730;2022-12-17T16:31:12;-1.50;99.90
27619;DHT22;15039;50.830;4.730;2022-12-17T16:33:40;-1.50;99.90
27619;DHT22;15039;50.830;4.730;2022-12-17T16:36:07;-1.60;99.90
27619;DHT22;15039;50.830;4.730;2022-12-17T16:38:33;-1.50;99.90
27619;DHT22;15039;50.830;4.730;2022-12-17T16:41:00;-1.60;99.90
27619;DHT22;15039;50.830;4.730;2022-12-17T16:43:28;-1.70;99.90
27619;DHT22;15039;50.830;4.730;2022-12-17T16:45:56;-1.80;99.90
27619;DHT22;15039;50.830;4.730;2022-12-17T16:48:22;-1.70;99.90
27619;DHT22;15039;50.830;4.730;2022-12-17T16:50:49;-1.70;99.90
27619;DHT22;15039;50.830;4.730;2022-12-17T16:53:16;-1.60;99.90
27619;DHT22;15039;50.830;4.730;2022-12-17T16:55:44;-1.70;99.90
27619;DHT22;15039;50.830;4.730;2022-12-17T16:58:10;-1.60;99.90
27619;DHT22;15039;50.830;4.730;2022-12-17T17:00:36;-1.50;99.90
27619;DHT22;15039;50.830;4.730;2022-12-17T17:03:03;-1.50;99.90
27619;DHT22;15039;50.830;4.730;2022-12-17T17:05:34;-1.30;99.90
27619;DHT22;15039;50.830;4.730;2022-12-17T17:08:00;-1.40;99.90
27619;DHT22;15039;50.830;4.730;2022-12-17T17:10:26;-1.20;99.90
27619;DHT22;15039;50.830;4.730;2022-12-17T17:12:53;-1.40;99.90
27619;DHT22;15039;50.830;4.730;2022-12-17T17:15:19;-1.40;99.90
27619;DHT22;15039;50.830;4.730;2022-12-17T17:17:45;-1.50;99.90
27619;DHT22;15039;50.830;4.730;2022-12-17T17:20:11;-1.50;99.90
27619;DHT22;15039;50.830;4.730;2022-12-17T17:22:36;-1.50;99.90
27619;DHT22;15039;50.830;4.730;2022-12-17T17:25:03;-1.40;99.90
27619;DHT22;15039;50.830;4.730;2022-12-17T17:27:29;-1.40;99.90
27619;DHT22;15039;50.830;4.730;2022-12-17T17:29:55;-1.60;99.90
27619;DHT22;15039;50.830;4.730;2022-12-17T17:32:23;-1.70;99.90
27619;DHT22;15039;50.830;4.730;2022-12-17T17:34:49;-1.70;99.90
27619;DHT22;15039;50.830;4.730;2022-12-17T17:37:14;-1.60;99.90
27619;DHT22;15039;50.830;4.730;2022-12-17T17:39:40;-1.60;99.90
27619;DHT22;15039;50.830;4.730;2022-12-17T17:42:06;-1.70;99.90
27619;DHT22;15039;50.830;4.730;2022-12-17T17:44:31;-1.80;99.90
27619;DHT22;15039;50.830;4.730;2022-12-17T17:46:57;-1.90;99.90
27619;DHT22;15039;50.830;4.730;2022-12-17T17:49:23;-1.90;99.90
27619;DHT22;15039;50.830;4.730;2022-12-17T17:51:48;-2.10;99.90
27619;DHT22;15039;50.830;4.730;2022-12-17T17:54:14;-2.20;99.90
27619;DHT22;15039;50.830;4.730;2022-12-17T17:56:40;-2.20;99.90
27619;DHT22;15039;50.830;4.730;2022-12-17T17:59:12;-2.20;99.90
27619;DHT22;15039;50.830;4.730;2022-12-17T18:01:40;-2.20;99.90
27619;DHT22;15039;50.830;4.730;2022-12-17T18:04:09;-2.20;99.90
27619;DHT22;15039;50.830;4.730;2022-12-17T18:06:39;-2.00;99.90
27619;DHT22;15039;50.830;4.730;2022-12-17T18:09:06;-1.90;99.90
27619;DHT22;15039;50.830;4.730;2022-12-17T18:11:32;-1.90;99.90
27619;DHT22;15039;50.830;4.730;2022-12-17T18:13:59;-2.00;99.90
27619;DHT22;15039;50.830;4.730;2022-12-17T18:16:43;-2.00;99.90
27619;DHT22;15039;50.830;4.730;2022-12-17T18:19:20;-2.10;99.90
27619;DHT22;15039;50.830;4.730;2022-12-17T18:21:46;-2.10;99.90
27619;DHT22;15039;50.830;4.730;2022-12-17T18:24:15;-2.00;99.90
27619;DHT22;15039;50.830;4.730;2022-12-17T18:26:43;-2.10;99.90
27619;DHT22;15039;50.830;4.730;2022-12-17T18:29:21;-2.20;99.90
27619;DHT22;15039;50.830;4.730;2022-12-17T18:31:47;-2.30;99.90
27619;DHT22;15039;50.830;4.730;2022-12-17T18:34:16;-2.20;99.90
27619;DHT22;15039;50.830;4.730;2022-12-17T18:36:43;-2.10;99.90
27619;DHT22;15039;50.830;4.730;2022-12-17T18:39:17;-2.10;99.90
27619;DHT22;15039;50.830;4.730;2022-12-17T18:41:43;-2.20;99.90